Time;durP1;ratioP1;P1;durP2;ratioP2;P2;SDS_P1;SDS_P2;PMS_P1;PMS_P2;Temp;Humidity;BMP_temperature;BMP_pressure;BME280_temperature;BME280_humidity;BME280_pressure;Samples;Min_cycle;Max_cycle;Signal;HPM_P1;HPM_P2
2021/09/21 00:01:31;;;;;;;11.85;8.25;;;10.00;99.90;;;;;;4951374;28;20039;-74
2021/09/21 00:03:58;;;;;;;12.35;8.15;;;9.90;99.90;;;;;;4972467;28;20489;-74
2021/09/21 00:06:25;;;;;;;12.95;8.20;;;9.80;99.90;;;;;;4988056;28;20050;-75
2021/09/21 00:08:52;;;;;;;11.07;7.45;;;9.90;99.90;;;;;;4966403;28;20058;-74
2021/09/21 00:11:19;;;;;;;11.45;7.15;;;9.80;99.90;;;;;;4966851;28;20516;-74
2021/09/21 00:13:46;;;;;;;14.93;7.57;;;9.80;99.90;;;;;;4983205;28;20060;-73
2021/09/21 00:16:14;;;;;;;12.50;7.60;;;9.90;99.90;;;;;;4951076;28;20050;-74
2021/09/21 00:18:41;;;;;;;11.75;7.63;;;10.00;99.90;;;;;;4950387;28;20056;-74
2021/09/21 00:21:08;;;;;;;9.43;6.30;;;10.10;99.90;;;;;;4966298;28;20517;-74
2021/09/21 00:23:35;;;;;;;11.20;7.22;;;10.00;99.90;;;;;;4963862;28;20101;-74
2021/09/21 00:26:02;;;;;;;9.60;6.60;;;10.00;99.90;;;;;;4966538;28;20046;-74
2021/09/21 00:28:28;;;;;;;9.65;6.97;;;10.00;99.90;;;;;;4984227;28;20058;-73
2021/09/21 00:31:02;;;;;;;10.75;6.28;;;10.00;99.90;;;;;;4950382;28;20042;-74
2021/09/21 00:33:35;;;;;;;9.25;6.32;;;10.00;99.90;;;;;;4958897;28;20050;-75
2021/09/21 00:36:02;;;;;;;11.38;6.65;;;9.90;99.90;;;;;;4971199;28;20060;-75
2021/09/21 00:38:29;;;;;;;13.38;7.18;;;10.00;99.90;;;;;;4966842;28;20046;-75
2021/09/21 00:40:56;;;;;;;11.90;7.28;;;10.00;99.90;;;;;;4950052;28;20050;-74
2021/09/21 00:43:24;;;;;;;13.63;8.20;;;10.00;99.90;;;;;;4949980;28;20509;-74
2021/09/21 00:45:55;;;;;;;8.82;7.22;;;10.00;99.90;;;;;;4962490;28;20386;-74
2021/09/21 00:48:22;;;;;;;10.02;7.25;;;10.10;99.90;;;;;;4951234;28;20046;-74
2021/09/21 00:50:50;;;;;;;10.48;6.38;;;10.00;99.90;;;;;;4949816;28;20047;-74
2021/09/21 00:53:18;;;;;;;11.50;6.53;;;9.90;99.90;;;;;;4978361;28;20050;-74
2021/09/21 00:55:46;;;;;;;8.70;6.60;;;10.00;99.90;;;;;;4966168;28;20042;-73
2021/09/21 00:58:13;;;;;;;13.82;6.93;;;9.90;99.90;;;;;;4962034;28;20046;-74
2021/09/21 01:00:40;;;;;;;11.43;7.28;;;9.90;99.90;;;;;;4952973;28;20426;-74
2021/09/21 01:03:07;;;;;;;17.33;8.23;;;9.80;99.90;;;;;;4954261;28;20061;-74
2021/09/21 01:05:36;;;;;;;13.10;7.95;;;9.80;99.90;;;;;;4989106;28;20248;-75
2021/09/21 01:08:03;;;;;;;11.57;6.43;;;9.90;99.90;;;;;;4969396;28;20141;-75
2021/09/21 01:10:31;;;;;;;9.00;7.07;;;10.00;99.90;;;;;;4968449;28;20050;-74
2021/09/21 01:12:59;;;;;;;10.15;7.45;;;10.10;99.90;;;;;;4949158;28;20055;-74
2021/09/21 01:15:27;;;;;;;10.55;7.07;;;10.00;99.90;;;;;;4933865;28;20042;-74
2021/09/21 01:17:56;;;;;;;11.48;7.20;;;9.90;99.90;;;;;;4948918;28;20113;-73
2021/09/21 01:20:24;;;;;;;12.50;7.38;;;9.90;99.90;;;;;;4947561;28;20057;-73
2021/09/21 01:22:52;;;;;;;11.48;7.30;;;10.00;99.90;;;;;;4936590;28;20230;-74
2021/09/21 01:25:20;;;;;;;12.07;7.80;;;10.10;99.90;;;;;;4952336;28;20389;-73
2021/09/21 01:27:47;;;;;;;11.68;6.88;;;10.00;99.90;;;;;;4968470;28;20058;-74
2021/09/21 01:30:15;;;;;;;14.45;7.75;;;9.90;99.90;;;;;;4985693;28;20458;-73
2021/09/21 01:32:43;;;;;;;10.00;7.10;;;9.90;99.90;;;;;;4971591;28;20197;-74
2021/09/21 01:35:11;;;;;;;16.15;7.00;;;9.90;99.90;;;;;;4981845;23;20144;-75
2021/09/21 01:37:41;;;;;;;11.43;7.63;;;9.90;99.90;;;;;;4987482;28;20057;-73
2021/09/21 01:40:09;;;;;;;13.20;6.90;;;10.00;99.90;;;;;;4991364;28;20562;-72
2021/09/21 01:42:45;;;;;;;10.40;7.38;;;9.90;99.90;;;;;;5005084;28;20084;-73
2021/09/21 01:45:13;;;;;;;11.10;6.07;;;10.00;99.90;;;;;;4979750;28;20057;-75
2021/09/21 01:47:42;;;;;;;11.70;7.07;;;9.90;99.90;;;;;;4986392;28;20409;-72
2021/09/21 01:58:18;;;;;;;11.98;7.78;;;10.00;99.90;;;;;;5003565;28;20684;-76
2021/09/21 01:58:46;;;;;;;10.68;7.43;;;9.90;99.90;;;;;;5004658;28;20046;-77
2021/09/21 02:01:02;;;;;;;9.20;6.63;;;10.00;99.90;;;;;;5001794;28;20349;-77
2021/09/21 02:03:28;;;;;;;9.55;7.05;;;9.90;99.90;;;;;;5002662;28;20049;-77
2021/09/21 02:05:55;;;;;;;17.08;8.30;;;9.90;99.90;;;;;;4987331;28;20065;-77
2021/09/21 02:08:22;;;;;;;12.43;7.18;;;10.00;99.90;;;;;;4985888;28;20050;-76
2021/09/21 02:10:49;;;;;;;14.32;8.05;;;10.00;99.90;;;;;;4984509;28;20046;-77
2021/09/21 02:13:17;;;;;;;8.73;6.55;;;9.90;99.90;;;;;;4967367;28;20053;-76
2021/09/21 02:15:43;;;;;;;14.27;8.50;;;9.80;99.90;;;;;;4965260;28;20050;-77
2021/09/21 02:18:10;;;;;;;12.48;7.97;;;9.90;99.90;;;;;;4984135;28;20050;-76
2021/09/21 02:20:37;;;;;;;11.65;7.60;;;9.90;99.90;;;;;;4984610;28;20109;-76
2021/09/21 02:23:04;;;;;;;12.40;7.45;;;9.80;99.90;;;;;;4970121;28;20046;-76
2021/09/21 02:25:31;;;;;;;14.40;7.82;;;9.80;99.90;;;;;;4964788;28;20073;-76
2021/09/21 02:27:58;;;;;;;13.43;7.57;;;9.70;99.90;;;;;;4981552;28;20166;-76
2021/09/21 02:30:25;;;;;;;13.77;7.95;;;9.70;99.90;;;;;;4980442;28;20062;-76
2021/09/21 02:32:51;;;;;;;13.38;7.70;;;9.70;99.90;;;;;;4981702;28;20670;-76
2021/09/21 02:35:19;;;;;;;10.95;7.53;;;9.70;99.90;;;;;;4984387;28;20397;-75
2021/09/21 02:37:47;;;;;;;12.18;8.20;;;9.70;99.90;;;;;;4985000;28;20050;-78
2021/09/21 02:40:14;;;;;;;10.43;7.30;;;9.70;99.90;;;;;;4965748;28;20104;-76
2021/09/21 02:42:41;;;;;;;12.20;7.10;;;9.70;99.90;;;;;;4969533;28;20744;-75
2021/09/21 02:45:08;;;;;;;12.88;7.82;;;9.80;99.90;;;;;;4984463;28;20538;-76
2021/09/21 02:47:35;;;;;;;11.25;7.72;;;9.80;99.90;;;;;;4984540;28;20085;-76
2021/09/21 02:50:04;;;;;;;12.18;8.52;;;9.80;99.90;;;;;;4998811;28;20066;-77
2021/09/21 02:52:31;;;;;;;10.30;7.22;;;9.80;99.90;;;;;;4996554;28;20615;-77
2021/09/21 02:54:58;;;;;;;13.30;8.32;;;9.80;99.90;;;;;;4968737;28;20063;-76
2021/09/21 02:57:24;;;;;;;14.07;7.75;;;9.80;99.90;;;;;;4985954;28;20432;-76
2021/09/21 02:59:51;;;;;;;12.60;7.28;;;9.70;99.90;;;;;;4985182;28;20476;-76
2021/09/21 03:02:18;;;;;;;11.43;7.95;;;9.70;99.90;;;;;;4968873;28;20046;-76
2021/09/21 03:04:58;;;;;;;16.27;8.05;;;9.80;99.90;;;;;;4986757;28;20073;-76
2021/09/21 03:07:31;;;;;;;13.20;7.78;;;9.70;99.90;;;;;;4999680;28;20042;-76
2021/09/21 03:18:05;;;;;;;11.57;8.00;;;9.70;99.90;;;;;;4965174;28;20050;-77
2021/09/21 03:20:32;;;;;;;11.07;7.80;;;9.60;99.90;;;;;;4964584;28;20057;-76
2021/09/21 03:22:59;;;;;;;16.63;7.35;;;9.70;99.90;;;;;;4965733;28;20105;-76
2021/09/21 03:25:26;;;;;;;11.27;7.47;;;9.70;99.90;;;;;;4966855;28;20046;-76
2021/09/21 03:27:52;;;;;;;12.52;6.78;;;9.70;99.90;;;;;;4982725;28;20050;-76
2021/09/21 03:30:19;;;;;;;10.52;6.93;;;9.70;99.90;;;;;;4983365;28;20062;-76
2021/09/21 03:32:46;;;;;;;12.32;7.93;;;9.60;99.90;;;;;;4967414;28;20776;-76
2021/09/21 03:35:13;;;;;;;15.35;8.48;;;9.70;99.90;;;;;;4981896;28;20046;-76
2021/09/21 03:37:39;;;;;;;13.82;8.07;;;9.60;99.90;;;;;;4983828;28;20496;-76
2021/09/21 03:40:08;;;;;;;12.68;7.93;;;9.70;99.90;;;;;;4982447;28;20042;-76
2021/09/21 03:42:35;;;;;;;11.55;8.35;;;9.70;99.90;;;;;;4984473;28;20472;-77
2021/09/21 03:45:03;;;;;;;13.35;7.97;;;9.80;99.90;;;;;;4968066;28;20148;-76
2021/09/21 03:47:31;;;;;;;10.75;7.85;;;9.80;99.90;;;;;;4983263;28;20054;-76
2021/09/21 03:49:58;;;;;;;13.70;8.43;;;9.80;99.90;;;;;;4983851;28;20180;-76
2021/09/21 03:52:25;;;;;;;14.00;8.05;;;9.80;99.90;;;;;;4995224;28;20035;-76
2021/09/21 03:54:51;;;;;;;14.90;7.70;;;9.80;99.90;;;;;;4980241;28;20054;-76
2021/09/21 03:57:18;;;;;;;12.48;7.47;;;9.70;99.90;;;;;;4983308;28;20093;-76
2021/09/21 03:59:45;;;;;;;13.75;8.25;;;9.70;99.90;;;;;;4966657;28;20078;-76
2021/09/21 04:02:12;;;;;;;11.75;7.68;;;9.70;99.90;;;;;;4979029;28;20058;-76
2021/09/21 04:04:39;;;;;;;13.40;7.70;;;9.80;99.90;;;;;;4996683;28;20537;-76
2021/09/21 04:07:06;;;;;;;15.55;8.38;;;9.90;99.90;;;;;;4980937;28;20038;-76
2021/09/21 04:09:32;;;;;;;13.20;8.02;;;9.90;99.90;;;;;;4982647;28;20101;-76
2021/09/21 04:11:59;;;;;;;10.82;7.43;;;9.90;99.90;;;;;;4998410;28;20116;-76
2021/09/21 04:14:26;;;;;;;16.60;8.60;;;9.90;99.90;;;;;;4983534;28;20217;-75
2021/09/21 04:16:53;;;;;;;13.73;7.63;;;9.90;99.90;;;;;;4982940;28;20148;-76
2021/09/21 04:19:20;;;;;;;11.25;7.55;;;9.70;99.90;;;;;;4999564;28;20050;-77
2021/09/21 04:21:46;;;;;;;16.33;7.55;;;9.70;99.90;;;;;;4966660;28;20050;-76
2021/09/21 04:24:13;;;;;;;12.38;7.25;;;9.70;99.90;;;;;;4984448;28;20125;-76
2021/09/21 04:26:40;;;;;;;16.05;8.63;;;9.60;99.90;;;;;;4967496;28;20050;-77
2021/09/21 04:29:07;;;;;;;14.30;8.23;;;9.70;99.90;;;;;;4986529;28;20050;-77
2021/09/21 04:31:35;;;;;;;13.82;8.27;;;9.90;99.90;;;;;;5003905;28;20055;-77
2021/09/21 04:34:02;;;;;;;12.25;7.97;;;9.80;99.90;;;;;;5004145;28;20050;-77
2021/09/21 04:36:29;;;;;;;18.45;8.23;;;9.80;99.90;;;;;;4985585;28;20039;-77
2021/09/21 04:38:56;;;;;;;16.80;9.30;;;9.70;99.90;;;;;;4987569;28;20046;-77
2021/09/21 04:41:23;;;;;;;15.93;9.82;;;9.80;99.90;;;;;;5003872;28;20056;-77
2021/09/21 04:43:50;;;;;;;15.45;7.55;;;9.70;99.90;;;;;;5004066;28;20109;-77
2021/09/21 04:46:17;;;;;;;11.32;8.50;;;9.70;99.90;;;;;;4984388;28;20058;-77
2021/09/21 04:48:44;;;;;;;11.93;8.20;;;9.60;99.90;;;;;;5002934;28;20069;-77
2021/09/21 04:51:11;;;;;;;12.57;8.13;;;9.40;99.90;;;;;;5003012;28;20073;-77
2021/09/21 04:53:37;;;;;;;16.45;9.63;;;9.20;99.90;;;;;;4989750;28;20142;-77
2021/09/21 04:56:04;;;;;;;12.50;8.73;;;9.40;99.90;;;;;;4992080;28;20050;-77
2021/09/21 04:58:31;;;;;;;13.75;9.57;;;9.30;99.90;;;;;;4988148;28;20059;-77
2021/09/21 05:00:58;;;;;;;15.23;9.65;;;9.30;99.90;;;;;;4970842;28;20595;-78
2021/09/21 05:03:25;;;;;;;15.23;9.82;;;9.10;99.90;;;;;;4994386;28;20046;-77
2021/09/21 05:05:52;;;;;;;14.45;9.85;;;8.90;99.90;;;;;;4991354;28;20073;-77
2021/09/21 05:08:18;;;;;;;18.20;8.93;;;8.80;99.90;;;;;;4966538;28;20082;-77
2021/09/21 05:10:45;;;;;;;15.75;9.73;;;8.80;99.90;;;;;;4978982;28;20512;-77
2021/09/21 05:13:13;;;;;;;16.48;9.85;;;8.60;99.90;;;;;;4986142;28;20740;-77
2021/09/21 05:15:40;;;;;;;18.90;10.10;;;8.60;99.90;;;;;;4986902;28;20105;-77
2021/09/21 05:18:07;;;;;;;22.02;11.45;;;8.50;99.90;;;;;;4987802;28;20527;-77
2021/09/21 05:20:34;;;;;;;27.73;12.88;;;8.50;99.90;;;;;;4983295;28;20585;-77
2021/09/21 05:23:02;;;;;;;18.60;10.88;;;8.50;99.90;;;;;;4964591;28;20112;-77
2021/09/21 05:25:29;;;;;;;18.08;11.02;;;8.30;99.90;;;;;;5002002;28;20058;-76
2021/09/21 05:27:55;;;;;;;17.48;11.18;;;8.30;99.90;;;;;;4971934;28;20058;-77
2021/09/21 05:30:22;;;;;;;20.42;11.23;;;8.40;99.90;;;;;;4966756;28;20055;-77
2021/09/21 05:32:49;;;;;;;17.15;11.02;;;8.20;99.90;;;;;;4982962;28;20059;-76
2021/09/21 05:35:16;;;;;;;20.25;11.80;;;8.20;99.90;;;;;;4988009;28;20058;-77
2021/09/21 05:37:43;;;;;;;21.15;12.07;;;8.00;99.90;;;;;;4970491;28;20109;-77
2021/09/21 05:40:11;;;;;;;18.02;11.25;;;7.90;99.90;;;;;;5006276;28;20094;-76
2021/09/21 05:42:37;;;;;;;20.38;12.45;;;7.80;99.90;;;;;;5015040;28;20065;-77
2021/09/21 05:45:08;;;;;;;24.00;12.02;;;7.80;99.90;;;;;;5007891;28;20042;-77
2021/09/21 05:47:39;;;;;;;17.23;10.82;;;7.80;99.90;;;;;;5029530;28;20133;-77
2021/09/21 05:50:06;;;;;;;20.70;11.32;;;7.80;99.90;;;;;;5000713;28;20045;-77
2021/09/21 05:52:33;;;;;;;18.75;12.00;;;7.90;99.90;;;;;;4997355;28;20050;-76
2021/09/21 05:55:01;;;;;;;20.80;11.85;;;7.70;99.90;;;;;;5021508;28;20061;-77
2021/09/21 05:57:27;;;;;;;23.50;10.82;;;7.70;99.90;;;;;;4989892;28;20565;-77
2021/09/21 05:59:54;;;;;;;19.83;12.23;;;7.70;99.90;;;;;;5006852;28;20053;-77
2021/09/21 06:02:23;;;;;;;24.85;12.65;;;7.70;99.90;;;;;;5005238;28;20045;-77
2021/09/21 06:04:51;;;;;;;30.27;11.63;;;7.70;99.90;;;;;;4988405;28;20082;-77
2021/09/21 06:07:18;;;;;;;23.15;12.35;;;7.70;99.90;;;;;;5011582;28;20054;-77
2021/09/21 06:09:45;;;;;;;19.77;11.75;;;7.80;99.90;;;;;;5004838;28;20045;-77
2021/09/21 06:12:12;;;;;;;18.30;11.80;;;7.80;99.90;;;;;;4989767;28;20050;-77
2021/09/21 06:14:38;;;;;;;21.38;12.93;;;7.80;99.90;;;;;;5017934;28;20099;-77
2021/09/21 06:17:05;;;;;;;21.67;11.95;;;8.00;99.90;;;;;;5011142;28;20127;-77
2021/09/21 06:19:32;;;;;;;21.63;12.40;;;8.10;99.90;;;;;;5021934;28;20060;-77
2021/09/21 06:21:59;;;;;;;23.33;13.90;;;8.00;99.90;;;;;;5020139;28;20661;-76
2021/09/21 06:24:26;;;;;;;23.98;14.73;;;8.10;99.90;;;;;;4988713;28;20053;-76
2021/09/21 06:26:53;;;;;;;24.45;14.43;;;8.20;99.90;;;;;;5012364;28;20050;-77
2021/09/21 06:29:20;;;;;;;27.23;14.40;;;8.20;99.90;;;;;;5006122;28;20060;-77
2021/09/21 06:31:46;;;;;;;28.23;13.93;;;8.40;99.90;;;;;;4991977;28;20100;-77
2021/09/21 06:34:13;;;;;;;24.63;14.52;;;8.50;99.90;;;;;;5004196;28;20089;-77
2021/09/21 06:36:40;;;;;;;20.83;13.23;;;8.50;99.90;;;;;;5010146;28;20081;-77
2021/09/21 06:39:07;;;;;;;25.23;13.80;;;8.50;99.90;;;;;;5026775;28;20099;-78
2021/09/21 06:41:33;;;;;;;20.98;14.27;;;8.50;99.90;;;;;;5006393;28;20050;-77
2021/09/21 06:44:00;;;;;;;24.38;13.95;;;8.60;99.90;;;;;;5021813;28;20108;-77
2021/09/21 06:46:27;;;;;;;29.27;15.52;;;8.60;99.90;;;;;;5015082;28;20046;-76
2021/09/21 06:48:54;;;;;;;28.48;15.93;;;8.60;99.90;;;;;;5021691;28;20057;-77
2021/09/21 06:51:20;;;;;;;25.20;14.45;;;8.60;99.90;;;;;;5002742;28;20054;-76
2021/09/21 06:53:47;;;;;;;26.08;14.55;;;8.70;99.90;;;;;;4988059;28;20548;-77
2021/09/21 06:56:14;;;;;;;22.00;14.27;;;8.80;99.90;;;;;;5003363;28;20073;-75
2021/09/21 06:58:42;;;;;;;19.60;12.98;;;8.90;99.90;;;;;;4970589;28;20058;-76
2021/09/21 07:01:10;;;;;;;23.77;14.88;;;9.00;99.90;;;;;;5003827;28;20054;-76
2021/09/21 07:03:39;;;;;;;27.95;15.45;;;9.10;99.90;;;;;;5004594;28;20045;-76
2021/09/21 07:06:06;;;;;;;24.52;15.35;;;9.30;99.90;;;;;;5003280;28;20046;-76
2021/09/21 07:08:33;;;;;;;23.38;14.35;;;9.40;99.90;;;;;;4987497;28;20050;-77
2021/09/21 07:10:59;;;;;;;20.42;14.90;;;9.60;99.90;;;;;;5002338;28;20420;-76
2021/09/21 07:13:26;;;;;;;22.52;14.65;;;9.90;99.90;;;;;;5004269;28;20049;-74
2021/09/21 07:15:53;;;;;;;22.02;14.00;;;10.00;99.90;;;;;;5006213;28;20053;-76
2021/09/21 07:18:20;;;;;;;19.55;11.77;;;10.20;99.90;;;;;;4988174;28;20563;-76
2021/09/21 07:20:47;;;;;;;25.67;13.60;;;10.40;99.90;;;;;;5004667;28;20448;-76
2021/09/21 07:23:13;;;;;;;19.60;12.25;;;10.50;99.90;;;;;;5004431;28;20499;-75
2021/09/21 07:25:40;;;;;;;22.73;13.88;;;10.80;99.90;;;;;;5004408;28;20745;-76
2021/09/21 07:28:07;;;;;;;14.98;11.50;;;10.90;99.90;;;;;;4999094;28;20081;-76
2021/09/21 07:30:35;;;;;;;19.40;12.73;;;11.10;99.90;;;;;;5000232;28;20055;-76
2021/09/21 07:33:02;;;;;;;17.10;10.82;;;11.20;99.90;;;;;;4985867;28;20057;-76
2021/09/21 07:35:29;;;;;;;20.52;12.43;;;11.40;99.90;;;;;;4993188;28;20056;-76
2021/09/21 07:37:56;;;;;;;18.90;13.10;;;11.60;99.90;;;;;;4986669;28;20058;-75
2021/09/21 07:40:22;;;;;;;16.27;12.18;;;11.70;99.90;;;;;;5002898;28;20665;-76
2021/09/21 07:42:50;;;;;;;16.63;12.07;;;11.70;99.90;;;;;;4987389;28;20448;-76
2021/09/21 07:45:17;;;;;;;17.98;11.57;;;11.80;99.90;;;;;;5003951;28;20046;-76
2021/09/21 07:47:48;;;;;;;17.33;11.95;;;11.90;99.90;;;;;;5003450;28;20057;-76
2021/09/21 07:50:15;;;;;;;18.88;11.18;;;11.90;99.90;;;;;;5039826;23;20053;-74
2021/09/21 07:52:42;;;;;;;19.50;12.30;;;12.00;99.90;;;;;;5038533;28;20068;-74
2021/09/21 07:55:09;;;;;;;17.98;12.38;;;12.10;99.90;;;;;;5035701;28;20037;-74
2021/09/21 07:57:38;;;;;;;16.30;11.55;;;12.00;99.90;;;;;;5034980;28;20084;-74
2021/09/21 08:00:07;;;;;;;19.65;12.77;;;12.10;99.90;;;;;;5027189;28;20067;-73
2021/09/21 08:02:38;;;;;;;18.42;13.25;;;12.30;99.90;;;;;;5017388;28;20153;-74
2021/09/21 08:05:06;;;;;;;12.98;11.05;;;12.50;99.90;;;;;;5016595;28;20112;-72
2021/09/21 08:07:33;;;;;;;15.25;13.55;;;12.60;99.90;;;;;;5022017;28;20060;-72
2021/09/21 08:10:01;;;;;;;16.85;13.93;;;12.80;99.90;;;;;;5006586;28;20059;-73
2021/09/21 08:12:29;;;;;;;18.40;14.10;;;12.80;99.90;;;;;;5022405;28;20081;-71
2021/09/21 08:14:57;;;;;;;13.98;12.55;;;12.90;99.90;;;;;;5024690;28;20061;-72
2021/09/21 08:17:26;;;;;;;16.02;14.27;;;12.90;99.90;;;;;;5021393;28;20824;-72
2021/09/21 08:19:57;;;;;;;18.88;14.18;;;12.90;99.90;;;;;;5008126;28;20054;-73
2021/09/21 08:22:26;;;;;;;22.15;14.07;;;12.90;99.90;;;;;;5022783;28;20143;-73
2021/09/21 08:24:54;;;;;;;20.05;15.57;;;13.10;99.90;;;;;;5022403;28;20068;-72
2021/09/21 08:27:23;;;;;;;16.92;15.23;;;13.30;99.90;;;;;;5020652;28;20072;-73
2021/09/21 08:29:51;;;;;;;16.23;14.65;;;13.40;99.90;;;;;;5024067;28;20042;-73
2021/09/21 08:32:18;;;;;;;15.38;13.70;;;13.50;99.90;;;;;;5022860;28;20045;-73
2021/09/21 08:34:46;;;;;;;15.07;13.57;;;13.60;99.90;;;;;;4988409;28;20052;-72
2021/09/21 08:37:13;;;;;;;16.13;13.88;;;13.70;99.90;;;;;;5028617;28;20060;-73
2021/09/21 08:39:40;;;;;;;16.77;13.15;;;14.00;99.90;;;;;;5025003;28;20115;-73
2021/09/21 08:42:08;;;;;;;17.73;13.68;;;14.10;99.90;;;;;;5023542;28;20280;-72
2021/09/21 08:44:37;;;;;;;15.40;13.98;;;14.10;99.90;;;;;;5027072;28;20041;-73
2021/09/21 08:47:07;;;;;;;15.63;14.15;;;14.20;99.90;;;;;;5005813;28;20046;-73
2021/09/21 08:49:34;;;;;;;15.90;14.50;;;14.20;99.90;;;;;;5018007;28;20036;-72
2021/09/21 08:52:02;;;;;;;18.00;16.40;;;14.20;99.90;;;;;;5040242;28;20103;-72
2021/09/21 08:54:33;;;;;;;17.60;16.13;;;14.20;99.90;;;;;;5003339;28;20164;-74
2021/09/21 08:57:00;;;;;;;16.55;15.10;;;14.30;99.90;;;;;;5013125;23;20053;-73
2021/09/21 08:59:30;;;;;;;15.95;14.40;;;14.40;99.90;;;;;;4948573;23;20099;-74
2021/09/21 09:02:02;;;;;;;15.63;14.30;;;14.40;99.90;;;;;;4987612;28;20100;-74
2021/09/21 09:04:30;;;;;;;18.63;17.13;;;14.50;99.90;;;;;;5017308;28;20045;-75
2021/09/21 09:06:58;;;;;;;16.33;14.80;;;14.60;99.90;;;;;;5016672;28;20044;-74
2021/09/21 09:09:29;;;;;;;15.40;14.13;;;14.50;99.90;;;;;;5009979;28;20081;-75
2021/09/21 09:12:04;;;;;;;16.60;15.13;;;14.50;99.90;;;;;;4987570;28;20050;-75
2021/09/21 09:14:36;;;;;;;17.48;15.88;;;14.60;99.90;;;;;;5037353;23;20155;-74
2021/09/21 09:17:10;;;;;;;15.77;14.40;;;14.70;99.90;;;;;;5006181;28;20140;-74
2021/09/21 09:19:43;;;;;;;16.85;15.43;;;14.70;99.90;;;;;;5008408;28;20057;-73
2021/09/21 09:22:10;;;;;;;17.35;15.65;;;14.70;99.90;;;;;;4990613;28;20508;-74
2021/09/21 09:24:46;;;;;;;16.70;15.50;;;14.80;99.90;;;;;;5026143;28;20053;-74
2021/09/21 09:27:13;;;;;;;18.38;16.63;;;14.70;99.90;;;;;;5007058;28;20068;-74
2021/09/21 09:30:14;;;;;;;18.58;16.63;;;14.60;99.90;;;;;;5007772;28;20046;-74
2021/09/21 09:32:53;;;;;;;16.67;15.18;;;14.60;99.90;;;;;;4944472;28;20050;-74
2021/09/21 09:35:35;;;;;;;17.95;16.25;;;14.90;99.90;;;;;;5009678;28;20046;-75
2021/09/21 09:38:06;;;;;;;16.35;14.95;;;14.80;99.90;;;;;;4991688;28;20084;-74
2021/09/21 09:40:56;;;;;;;15.43;14.32;;;14.80;99.90;;;;;;5025411;28;20392;-74
2021/09/21 09:43:26;;;;;;;16.33;14.93;;;14.80;99.90;;;;;;4989409;28;20484;-74
2021/09/21 09:45:57;;;;;;;15.00;14.00;;;14.80;99.90;;;;;;5026040;28;20045;-74
2021/09/21 09:48:26;;;;;;;17.60;16.10;;;14.80;99.90;;;;;;5011642;28;20789;-74
2021/09/21 09:50:55;;;;;;;15.52;14.32;;;15.10;99.90;;;;;;5024287;28;20081;-74
2021/09/21 09:53:25;;;;;;;16.75;15.30;;;15.10;99.90;;;;;;5025624;28;20061;-74
2021/09/21 09:55:54;;;;;;;16.27;14.88;;;15.00;99.90;;;;;;5045003;28;20766;-75
2021/09/21 09:58:21;;;;;;;16.52;15.23;;;15.00;99.90;;;;;;5024151;28;20107;-74
2021/09/21 10:00:49;;;;;;;15.70;14.45;;;15.00;99.90;;;;;;4990204;28;20520;-75
2021/09/21 10:03:16;;;;;;;17.55;16.00;;;15.00;99.90;;;;;;5040395;28;20563;-75
2021/09/21 10:05:43;;;;;;;16.70;15.18;;;14.90;99.90;;;;;;5005722;28;20073;-74
2021/09/21 10:08:11;;;;;;;17.67;15.90;;;14.80;99.90;;;;;;5039282;28;20588;-74
2021/09/21 10:10:40;;;;;;;17.15;15.45;;;14.80;99.90;;;;;;5023095;28;20053;-74
2021/09/21 10:13:13;;;;;;;17.17;15.93;;;14.90;99.90;;;;;;5024240;28;20041;-75
2021/09/21 10:15:41;;;;;;;17.00;15.50;;;15.00;99.90;;;;;;5024520;28;20053;-75
2021/09/21 10:18:20;;;;;;;17.13;15.45;;;14.90;99.90;;;;;;5041212;28;20119;-74
2021/09/21 10:21:01;;;;;;;17.00;15.40;;;14.90;99.90;;;;;;5025952;28;20547;-75
2021/09/21 10:23:39;;;;;;;17.58;15.95;;;15.20;99.90;;;;;;5024831;28;20053;-75
2021/09/21 10:26:19;;;;;;;17.98;16.35;;;15.40;99.90;;;;;;4989198;28;20083;-74
2021/09/21 10:28:49;;;;;;;16.70;15.27;;;15.10;99.90;;;;;;5025819;28;20096;-74
2021/09/21 10:31:18;;;;;;;17.88;16.27;;;15.30;99.90;;;;;;5038535;28;20099;-74
2021/09/21 10:33:46;;;;;;;19.80;17.73;;;15.50;99.90;;;;;;5008436;28;20049;-74
2021/09/21 10:36:32;;;;;;;16.58;15.25;;;15.60;99.90;;;;;;5025506;28;20512;-75
2021/09/21 10:38:59;;;;;;;17.15;15.75;;;15.80;99.90;;;;;;5008018;28;20049;-75
2021/09/21 10:41:27;;;;;;;18.33;16.77;;;15.90;99.90;;;;;;5006811;28;20311;-74
2021/09/21 10:44:05;;;;;;;17.60;16.10;;;16.20;99.90;;;;;;4990036;28;20539;-78
2021/09/21 10:46:56;;;;;;;18.52;16.25;;;16.20;99.90;;;;;;5020143;28;20129;-74
2021/09/21 10:49:36;;;;;;;16.98;15.43;;;16.00;99.90;;;;;;5024219;28;20696;-74
2021/09/21 10:52:11;;;;;;;16.83;15.50;;;15.50;99.90;;;;;;5007488;28;20099;-74
2021/09/21 10:54:53;;;;;;;16.70;15.52;;;15.40;99.90;;;;;;5007161;28;20104;-74
2021/09/21 10:57:26;;;;;;;15.68;14.57;;;15.60;99.90;;;;;;5021789;28;20048;-74
2021/09/21 11:00:01;;;;;;;16.75;15.55;;;15.90;99.90;;;;;;5010134;28;20080;-75
2021/09/21 11:02:35;;;;;;;17.05;15.57;;;16.20;99.90;;;;;;5040417;28;20265;-75
2021/09/21 11:05:09;;;;;;;17.10;15.85;;;16.30;99.90;;;;;;5042065;28;20045;-75
2021/09/21 11:07:37;;;;;;;16.95;15.65;;;16.50;99.90;;;;;;5024346;28;20041;-75
2021/09/21 11:10:07;;;;;;;17.40;16.27;;;16.70;99.90;;;;;;5005502;28;20111;-75
2021/09/21 11:12:33;;;;;;;17.05;15.88;;;16.60;99.90;;;;;;5024676;28;20119;-74
2021/09/21 11:15:09;;;;;;;17.52;16.20;;;16.40;99.90;;;;;;5024756;28;20119;-75
2021/09/21 11:17:37;;;;;;;15.80;14.80;;;16.60;99.90;;;;;;5022642;28;20049;-75
2021/09/21 11:20:05;;;;;;;15.77;14.75;;;16.60;99.90;;;;;;5024083;28;20527;-75
2021/09/21 11:22:32;;;;;;;16.25;14.85;;;16.80;99.90;;;;;;4990244;28;20049;-75
2021/09/21 11:25:02;;;;;;;16.65;15.55;;;17.00;99.90;;;;;;5007204;28;20053;-74
2021/09/21 11:27:29;;;;;;;15.77;14.88;;;17.20;99.90;;;;;;5017573;28;20050;-75
2021/09/21 11:30:09;;;;;;;15.98;14.88;;;17.00;99.90;;;;;;5040774;28;20045;-74
2021/09/21 11:32:36;;;;;;;15.77;14.57;;;16.90;99.90;;;;;;5036949;28;20543;-74
2021/09/21 11:35:17;;;;;;;15.75;14.57;;;16.80;99.90;;;;;;5024465;28;20056;-74
2021/09/21 11:37:51;;;;;;;16.17;15.07;;;16.60;99.90;;;;;;5023976;28;20053;-78
2021/09/21 11:40:30;;;;;;;16.02;15.02;;;16.80;99.90;;;;;;5005564;28;20074;-77
2021/09/21 11:42:58;;;;;;;15.57;14.60;;;16.90;99.90;;;;;;4989068;28;20103;-77
2021/09/21 11:45:26;;;;;;;16.00;14.90;;;16.90;99.90;;;;;;5038066;28;20363;-77
2021/09/21 11:47:53;;;;;;;15.45;14.45;;;16.90;99.90;;;;;;5004808;28;20381;-77
2021/09/21 11:50:27;;;;;;;16.42;15.02;;;16.90;99.90;;;;;;5005696;28;20053;-77
2021/09/21 11:53:03;;;;;;;15.60;14.45;;;17.00;99.90;;;;;;5022982;28;20081;-77
2021/09/21 11:55:51;;;;;;;15.48;14.38;;;17.00;99.90;;;;;;4979481;28;20050;-77
2021/09/21 11:58:18;;;;;;;15.60;14.68;;;16.90;99.90;;;;;;4997007;28;20095;-77
2021/09/21 12:00:57;;;;;;;15.85;14.68;;;16.90;99.90;;;;;;5039271;28;20432;-77
2021/09/21 12:03:24;;;;;;;15.07;14.07;;;16.70;99.90;;;;;;4971084;28;20046;-77
2021/09/21 12:05:54;;;;;;;16.05;14.98;;;16.50;99.90;;;;;;4971118;28;20120;-77
2021/09/21 12:08:28;;;;;;;15.88;14.98;;;16.60;99.90;;;;;;4999161;28;20053;-76
2021/09/21 12:10:57;;;;;;;16.30;15.05;;;16.50;99.90;;;;;;5022466;28;20049;-77
2021/09/21 12:13:26;;;;;;;16.63;15.48;;;16.50;99.90;;;;;;5024752;28;20050;-77
2021/09/21 12:15:56;;;;;;;15.32;14.40;;;16.50;99.90;;;;;;5038417;28;20038;-77
2021/09/21 12:18:24;;;;;;;15.68;14.60;;;16.70;99.90;;;;;;5006232;28;20053;-77
2021/09/21 12:20:57;;;;;;;15.32;14.43;;;16.60;99.90;;;;;;5022635;28;20411;-77
2021/09/21 12:23:35;;;;;;;14.77;13.98;;;16.70;99.90;;;;;;5023116;28;20061;-77
2021/09/21 12:26:04;;;;;;;15.82;14.93;;;16.90;99.90;;;;;;5022531;28;20095;-77
2021/09/21 12:28:39;;;;;;;16.50;15.50;;;16.90;99.90;;;;;;4990458;28;20044;-77
2021/09/21 12:31:10;;;;;;;15.02;14.18;;;17.10;99.90;;;;;;5004769;28;20095;-77
2021/09/21 12:33:39;;;;;;;16.00;14.90;;;17.10;99.90;;;;;;5040365;28;20050;-77
2021/09/21 12:36:17;;;;;;;15.27;14.15;;;17.10;99.90;;;;;;5039803;28;20096;-77
2021/09/21 12:38:59;;;;;;;16.35;15.32;;;16.90;99.90;;;;;;5003965;28;20038;-77
2021/09/21 12:41:27;;;;;;;16.88;15.70;;;16.60;99.90;;;;;;4990211;28;20237;-77
2021/09/21 12:43:56;;;;;;;15.95;14.68;;;16.60;99.90;;;;;;4990259;28;20396;-77
2021/09/21 12:46:23;;;;;;;14.98;13.82;;;16.80;99.90;;;;;;4989198;28;20251;-77
2021/09/21 12:48:50;;;;;;;14.98;14.07;;;17.00;99.90;;;;;;5039329;28;20092;-77
2021/09/21 12:51:17;;;;;;;15.30;14.30;;;17.00;99.90;;;;;;5008143;28;20049;-77
2021/09/21 12:53:58;;;;;;;15.30;14.05;;;16.70;99.90;;;;;;5027913;28;20132;-77
2021/09/21 12:56:25;;;;;;;16.33;14.95;;;16.60;99.90;;;;;;5017245;28;20054;-77
2021/09/21 12:59:01;;;;;;;15.27;14.15;;;16.70;99.90;;;;;;5021617;28;20088;-76